Bloomington, IN

12:07 PM EDT on July 06, 2015 (GMT -0400)
APRSWXNET | | Change Station
CLOSE
Current Station
Personal Weather Station
Location: Bloomington, IN
Elevation: 771 ft
Nearby Weather Stations

Elev 771 ft 39.13 °N, 86.45 °W | Updated 27 minutes ago

Clear
Clear
81 °F
Feels Like 84 °F
N
3
Wind Variable Wind from SSE
Gusts 4.0 mph

Today
High -- | Low -- °F
--% Chance of Precip.
Yesterday
High -- | Low -- °F
Precip. -- in
6:26 AM 9:14 PM
Waning Gibbous, 74% visible
Pressure 30.06 in
Visibility 8.0 miles
Clouds Clear
Heat Index 84 °F
Dew Point 69 °F
Humidity 68%
Rainfall in
Snow Depth Not available.
UV 10 out of 12
Pollen 3.90 out of 12
Air Quality Not available.
Flu Activity Not available.
METAR KBMG 061553Z 24007KT 8SM CLR 27/20 A3008 RMK AO2 SLP177 T02670200

More Conditions Fewer Conditions

Pressure 30.06 in
Visibility 8.0 miles
Clouds Clear
Heat Index 84 °F
Dew Point 69 °F
Humidity 68%
Rainfall in
Snow Depth Not available.
UV 10 out of 12
Pollen 3.90 out of 12
Air Quality Not available.
Flu Activity Not available.
METAR KBMG 061553Z 24007KT 8SM CLR 27/20 A3008 RMK AO2 SLP177 T02670200

More Conditions Fewer Conditions

10-Day Weather Forecast

×

Almanac

Astronomy

Jul. 06, 2015 Rise Set
Actual Time
Civil Twilight
Nautical Twilight
Astronomical Twilight
Moon
Length of Visible Light
Length of Day
Tomorrow will be .
, % of the Moon is Illuminated

Today's Extremes

State Highs State Lows

Community

WunderPhotos

Upload Photos

1,835,586 photos uploaded!

WunderBlogs® & News

Nearby

Air Quality

  Air Quality AQ Index Pollutant
Not available.

Snow Depth

Station Depth Elevation

Earthquake Activity

City Distance Mag. Time & Date
Minimum magnitude displayed is 2.5.

Coastal Water Temperatures

Place Temperature

Stations

Nearby Weather Stations

Station Location Temp. Windchill Dew Point Humidity Wind Precip. Elev Updated Type